sensor_id;sensor_type;location;lat;lon;timestamp;pressure;altitude;pressure_sealevel;temperature;humidity
78855;BME280;68206;59.956;30.234;2023-06-14T00:00:04;101885.16;;;16.61;51.01
78855;BME280;68206;59.956;30.234;2023-06-14T00:02:34;101895.91;;;16.59;51.04
78855;BME280;68206;59.956;30.234;2023-06-14T00:05:03;101891.59;;;16.55;50.98
78855;BME280;68206;59.956;30.234;2023-06-14T00:07:36;101891.63;;;16.53;50.97
78855;BME280;68206;59.956;30.234;2023-06-14T00:10:06;101897.91;;;16.52;50.83
78855;BME280;68206;59.956;30.234;2023-06-14T00:12:36;101897.97;;;16.51;51.12
78855;BME280;68206;59.956;30.234;2023-06-14T00:15:05;101896.34;;;16.47;51.50
78855;BME280;68206;59.956;30.234;2023-06-14T00:17:36;101891.94;;;16.44;51.24
78855;BME280;68206;59.956;30.234;2023-06-14T00:20:07;101895.72;;;16.39;50.85
78855;BME280;68206;59.956;30.234;2023-06-14T00:22:36;101901.06;;;16.39;50.66
78855;BME280;68206;59.956;30.234;2023-06-14T00:25:06;101897.56;;;16.37;51.14
78855;BME280;68206;59.956;30.234;2023-06-14T00:27:56;101896.75;;;16.35;50.92
78855;BME280;68206;59.956;30.234;2023-06-14T00:30:25;101906.59;;;16.34;50.74
78855;BME280;68206;59.956;30.234;2023-06-14T00:32:59;101900.41;;;16.32;50.47
78855;BME280;68206;59.956;30.234;2023-06-14T00:35:27;101906.69;;;16.31;50.04
78855;BME280;68206;59.956;30.234;2023-06-14T00:37:56;101909.34;;;16.31;50.11
78855;BME280;68206;59.956;30.234;2023-06-14T00:40:24;101907.69;;;16.29;49.77
78855;BME280;68206;59.956;30.234;2023-06-14T00:42:52;101913.84;;;16.31;49.54
78855;BME280;68206;59.956;30.234;2023-06-14T00:45:22;101907.69;;;16.29;49.63
78855;BME280;68206;59.956;30.234;2023-06-14T00:47:50;101902.31;;;16.29;50.10
78855;BME280;68206;59.956;30.234;2023-06-14T00:50:23;101905.88;;;16.29;49.95
78855;BME280;68206;59.956;30.234;2023-06-14T00:52:51;101905.81;;;16.31;49.70
78855;BME280;68206;59.956;30.234;2023-06-14T00:55:20;101898.72;;;16.30;50.07
78855;BME280;68206;59.956;30.234;2023-06-14T00:57:48;101900.41;;;16.32;49.92
78855;BME280;68206;59.956;30.234;2023-06-14T01:00:18;101895.09;;;16.31;49.83
78855;BME280;68206;59.956;30.234;2023-06-14T01:02:48;101892.38;;;16.32;49.47
78855;BME280;68206;59.956;30.234;2023-06-14T01:05:18;101895.06;;;16.32;48.80
78855;BME280;68206;59.956;30.234;2023-06-14T01:07:58;101900.31;;;16.35;48.51
78855;BME280;68206;59.956;30.234;2023-06-14T01:10:37;101891.34;;;16.36;48.85
78855;BME280;68206;59.956;30.234;2023-06-14T01:13:13;101891.28;;;16.38;48.50
78855;BME280;68206;59.956;30.234;2023-06-14T01:15:44;101893.91;;;16.39;48.76
78855;BME280;68206;59.956;30.234;2023-06-14T01:18:13;101884.09;;;16.40;48.19
78855;BME280;68206;59.956;30.234;2023-06-14T01:20:46;101892.00;;;16.43;48.08
78855;BME280;68206;59.956;30.234;2023-06-14T01:23:18;101888.34;;;16.45;48.14
78855;BME280;68206;59.956;30.234;2023-06-14T01:25:48;101900.59;;;16.52;47.91
78855;BME280;68206;59.956;30.234;2023-06-14T01:28:21;101898.63;;;16.58;47.72
78855;BME280;68206;59.956;30.234;2023-06-14T01:30:51;101898.44;;;16.64;47.70
78855;BME280;68206;59.956;30.234;2023-06-14T01:33:22;101903.56;;;16.70;47.19
78855;BME280;68206;59.956;30.234;2023-06-14T01:35:52;101893.47;;;16.78;47.05
78855;BME280;68206;59.956;30.234;2023-06-14T01:38:24;101903.03;;;16.85;46.60
78855;BME280;68206;59.956;30.234;2023-06-14T01:40:54;101903.59;;;16.93;46.68
78855;BME280;68206;59.956;30.234;2023-06-14T01:43:25;101899.72;;;17.02;46.47
78855;BME280;68206;59.956;30.234;2023-06-14T01:45:54;101904.66;;;17.12;46.08
78855;BME280;68206;59.956;30.234;2023-06-14T01:48:23;101902.56;;;17.20;45.22
78855;BME280;68206;59.956;30.234;2023-06-14T01:50:51;101903.84;;;17.33;44.96
78855;BME280;68206;59.956;30.234;2023-06-14T01:53:20;101911.56;;;17.43;44.85
78855;BME280;68206;59.956;30.234;2023-06-14T01:55:49;101905.81;;;17.52;44.52
78855;BME280;68206;59.956;30.234;2023-06-14T01:58:22;101902.63;;;17.65;43.93
78855;BME280;68206;59.956;30.234;2023-06-14T02:00:50;101899.44;;;17.78;43.67
78855;BME280;68206;59.956;30.234;2023-06-14T02:03:23;101905.19;;;17.90;43.65
78855;BME280;68206;59.956;30.234;2023-06-14T02:05:51;101903.69;;;18.05;43.37
78855;BME280;68206;59.956;30.234;2023-06-14T02:08:21;101897.72;;;18.19;42.88
78855;BME280;68206;59.956;30.234;2023-06-14T02:10:51;101897.88;;;18.36;42.62
78855;BME280;68206;59.956;30.234;2023-06-14T02:13:21;101892.59;;;18.54;42.28
78855;BME280;68206;59.956;30.234;2023-06-14T02:15:50;101898.16;;;18.70;41.25
78855;BME280;68206;59.956;30.234;2023-06-14T02:18:22;101895.47;;;18.90;40.88
78855;BME280;68206;59.956;30.234;2023-06-14T02:21:10;101892.19;;;19.23;40.31
78855;BME280;68206;59.956;30.234;2023-06-14T02:23:39;101891.47;;;19.57;39.59
78855;BME280;68206;59.956;30.234;2023-06-14T02:26:09;101889.44;;;19.98;38.31
78855;BME280;68206;59.956;30.234;2023-06-14T02:28:38;101890.59;;;20.45;36.92
78855;BME280;68206;59.956;30.234;2023-06-14T02:31:08;101896.00;;;20.96;36.22
78855;BME280;68206;59.956;30.234;2023-06-14T02:33:37;101900.53;;;21.44;35.09
78855;BME280;68206;59.956;30.234;2023-06-14T02:36:06;101897.78;;;21.92;34.41
78855;BME280;68206;59.956;30.234;2023-06-14T02:38:34;101898.28;;;22.44;33.22
78855;BME280;68206;59.956;30.234;2023-06-14T02:41:02;101900.03;;;22.89;32.42
78855;BME280;68206;59.956;30.234;2023-06-14T02:43:32;101895.22;;;23.23;31.45
78855;BME280;68206;59.956;30.234;2023-06-14T02:46:00;101894.94;;;23.68;30.64
78855;BME280;68206;59.956;30.234;2023-06-14T02:48:28;101893.69;;;24.28;30.03
78855;BME280;68206;59.956;30.234;2023-06-14T02:50:56;101898.13;;;24.94;29.04
78855;BME280;68206;59.956;30.234;2023-06-14T02:53:24;101892.91;;;25.28;28.10
78855;BME280;68206;59.956;30.234;2023-06-14T02:55:53;101908.69;;;25.73;27.58
78855;BME280;68206;59.956;30.234;2023-06-14T02:58:22;101900.13;;;26.14;26.88
78855;BME280;68206;59.956;30.234;2023-06-14T03:00:54;101911.06;;;26.48;26.24
78855;BME280;68206;59.956;30.234;2023-06-14T03:03:22;101906.84;;;26.91;25.61
78855;BME280;68206;59.956;30.234;2023-06-14T03:05:54;101903.75;;;27.40;24.82
78855;BME280;68206;59.956;30.234;2023-06-14T03:08:27;101911.22;;;28.03;23.78
78855;BME280;68206;59.956;30.234;2023-06-14T03:11:00;101913.22;;;28.65;23.30
78855;BME280;68206;59.956;30.234;2023-06-14T03:13:29;101915.81;;;29.17;22.05
78855;BME280;68206;59.956;30.234;2023-06-14T03:16:01;101925.00;;;29.77;21.77
78855;BME280;68206;59.956;30.234;2023-06-14T03:18:33;101912.56;;;30.32;21.01
78855;BME280;68206;59.956;30.234;2023-06-14T03:21:04;101920.16;;;30.86;20.24
78855;BME280;68206;59.956;30.234;2023-06-14T03:23:33;101924.34;;;31.37;19.67
78855;BME280;68206;59.956;30.234;2023-06-14T03:26:03;101917.53;;;31.78;18.62
78855;BME280;68206;59.956;30.234;2023-06-14T03:28:32;101913.41;;;32.10;19.01
78855;BME280;68206;59.956;30.234;2023-06-14T03:31:01;101914.19;;;32.55;18.12
78855;BME280;68206;59.956;30.234;2023-06-14T03:33:31;101919.47;;;32.92;17.95
78855;BME280;68206;59.956;30.234;2023-06-14T03:35:59;101921.53;;;33.16;17.46
78855;BME280;68206;59.956;30.234;2023-06-14T03:38:27;101923.81;;;33.20;17.22
78855;BME280;68206;59.956;30.234;2023-06-14T03:40:56;101920.41;;;33.27;17.19
78855;BME280;68206;59.956;30.234;2023-06-14T03:43:27;101917.00;;;33.33;17.05
78855;BME280;68206;59.956;30.234;2023-06-14T03:45:57;101921.72;;;33.48;17.40
78855;BME280;68206;59.956;30.234;2023-06-14T03:48:28;101923.75;;;33.80;16.36
78855;BME280;68206;59.956;30.234;2023-06-14T03:50:57;101916.25;;;34.07;16.19
78855;BME280;68206;59.956;30.234;2023-06-14T03:53:29;101918.72;;;34.42;16.19
78855;BME280;68206;59.956;30.234;2023-06-14T03:55:58;101926.16;;;34.82;15.36
78855;BME280;68206;59.956;30.234;2023-06-14T03:58:37;101923.81;;;35.18;14.75
78855;BME280;68206;59.956;30.234;2023-06-14T04:01:05;101922.00;;;35.49;14.89
78855;BME280;68206;59.956;30.234;2023-06-14T04:03:35;101921.63;;;35.69;14.82
78855;BME280;68206;59.956;30.234;2023-06-14T04:06:04;101923.56;;;35.91;14.38
78855;BME280;68206;59.956;30.234;2023-06-14T04:08:33;101937.63;;;36.35;13.84
78855;BME280;68206;59.956;30.234;2023-06-14T04:11:01;101942.16;;;36.73;13.13
78855;BME280;68206;59.956;30.234;2023-06-14T04:13:30;101938.94;;;37.22;12.95
78855;BME280;68206;59.956;30.234;2023-06-14T04:15:58;101925.66;;;37.62;12.51
78855;BME280;68206;59.956;30.234;2023-06-14T04:18:32;101928.16;;;37.92;12.77
78855;BME280;68206;59.956;30.234;2023-06-14T04:21:01;101945.38;;;38.24;12.61
78855;BME280;68206;59.956;30.234;2023-06-14T04:23:30;101945.88;;;38.49;12.58
78855;BME280;68206;59.956;30.234;2023-06-14T04:26:01;101938.16;;;38.65;11.49
78855;BME280;68206;59.956;30.234;2023-06-14T04:28:29;101934.41;;;38.80;12.05
78855;BME280;68206;59.956;30.234;2023-06-14T04:31:00;101952.38;;;38.84;12.47
78855;BME280;68206;59.956;30.234;2023-06-14T04:33:31;101940.50;;;38.68;12.05
78855;BME280;68206;59.956;30.234;2023-06-14T04:36:02;101937.66;;;39.11;12.47
78855;BME280;68206;59.956;30.234;2023-06-14T04:38:30;101937.09;;;39.57;12.22
78855;BME280;68206;59.956;30.234;2023-06-14T04:41:02;101938.34;;;39.47;12.25
78855;BME280;68206;59.956;30.234;2023-06-14T04:43:31;101922.22;;;40.38;11.70
78855;BME280;68206;59.956;30.234;2023-06-14T04:46:06;101917.31;;;40.93;11.15
78855;BME280;68206;59.956;30.234;2023-06-14T04:48:40;101924.38;;;41.15;11.04
78855;BME280;68206;59.956;30.234;2023-06-14T04:51:12;101929.38;;;41.64;10.44
78855;BME280;68206;59.956;30.234;2023-06-14T04:53:42;101922.84;;;41.83;10.61
78855;BME280;68206;59.956;30.234;2023-06-14T04:56:11;101923.78;;;42.15;9.97
78855;BME280;68206;59.956;30.234;2023-06-14T04:58:39;101931.34;;;42.40;10.08
78855;BME280;68206;59.956;30.234;2023-06-14T05:01:08;101921.47;;;42.37;10.42
78855;BME280;68206;59.956;30.234;2023-06-14T05:03:36;101927.53;;;42.34;10.30
78855;BME280;68206;59.956;30.234;2023-06-14T05:06:05;101921.03;;;42.40;9.84
78855;BME280;68206;59.956;30.234;2023-06-14T05:08:35;101925.94;;;42.70;9.87
78855;BME280;68206;59.956;30.234;2023-06-14T05:11:03;101926.97;;;43.00;9.34
78855;BME280;68206;59.956;30.234;2023-06-14T05:13:32;101930.59;;;43.00;9.22
78855;BME280;68206;59.956;30.234;2023-06-14T05:16:01;101920.84;;;43.10;8.93
78855;BME280;68206;59.956;30.234;2023-06-14T05:18:30;101924.94;;;43.07;9.23
78855;BME280;68206;59.956;30.234;2023-06-14T05:21:01;101928.91;;;42.99;9.35
78855;BME280;68206;59.956;30.234;2023-06-14T05:23:31;101927.00;;;42.69;9.66
78855;BME280;68206;59.956;30.234;2023-06-14T05:26:00;101930.03;;;42.67;9.17
78855;BME280;68206;59.956;30.234;2023-06-14T05:28:30;101924.06;;;42.88;8.88
78855;BME280;68206;59.956;30.234;2023-06-14T05:30:58;101932.09;;;43.03;8.82
78855;BME280;68206;59.956;30.234;2023-06-14T05:33:27;101937.19;;;43.06;9.17
78855;BME280;68206;59.956;30.234;2023-06-14T05:35:55;101931.38;;;43.32;8.90
78855;BME280;68206;59.956;30.234;2023-06-14T05:38:23;101934.94;;;43.21;8.49
78855;BME280;68206;59.956;30.234;2023-06-14T05:40:52;101930.97;;;43.47;8.89
78855;BME280;68206;59.956;30.234;2023-06-14T05:43:22;101930.69;;;43.55;8.28
78855;BME280;68206;59.956;30.234;2023-06-14T05:45:52;101924.03;;;43.86;8.44
78855;BME280;68206;59.956;30.234;2023-06-14T05:48:20;101932.25;;;43.99;8.29
78855;BME280;68206;59.956;30.234;2023-06-14T05:50:49;101927.31;;;44.13;8.26
78855;BME280;68206;59.956;30.234;2023-06-14T05:53:18;101934.63;;;44.14;8.52
78855;BME280;68206;59.956;30.234;2023-06-14T05:55:46;101931.06;;;44.37;7.89
78855;BME280;68206;59.956;30.234;2023-06-14T05:58:14;101930.47;;;44.35;7.75
78855;BME280;68206;59.956;30.234;2023-06-14T06:00:43;101942.16;;;44.13;8.48
78855;BME280;68206;59.956;30.234;2023-06-14T06:03:12;101929.41;;;44.17;7.88
78855;BME280;68206;59.956;30.234;2023-06-14T06:05:41;101933.03;;;43.88;8.62
78855;BME280;68206;59.956;30.234;2023-06-14T06:08:09;101934.28;;;43.92;8.19
78855;BME280;68206;59.956;30.234;2023-06-14T06:10:37;101935.84;;;43.88;8.84
78855;BME280;68206;59.956;30.234;2023-06-14T06:13:05;101931.69;;;43.79;8.06
78855;BME280;68206;59.956;30.234;2023-06-14T06:15:35;101933.84;;;43.95;8.41
78855;BME280;68206;59.956;30.234;2023-06-14T06:18:06;101928.06;;;44.08;8.39
78855;BME280;68206;59.956;30.234;2023-06-14T06:20:34;101927.00;;;44.21;8.37
78855;BME280;68206;59.956;30.234;2023-06-14T06:23:03;101929.84;;;44.33;8.58
78855;BME280;68206;59.956;30.234;2023-06-14T06:25:31;101927.81;;;44.40;7.94
78855;BME280;68206;59.956;30.234;2023-06-14T06:27:59;101932.66;;;44.44;8.43
78855;BME280;68206;59.956;30.234;2023-06-14T06:30:28;101933.97;;;44.30;8.39
78855;BME280;68206;59.956;30.234;2023-06-14T06:32:56;101937.22;;;44.27;7.66
78855;BME280;68206;59.956;30.234;2023-06-14T06:35:26;101942.97;;;44.02;8.58
78855;BME280;68206;59.956;30.234;2023-06-14T06:37:54;101941.94;;;44.15;8.26
78855;BME280;68206;59.956;30.234;2023-06-14T06:40:23;101945.16;;;44.30;8.49
78855;BME280;68206;59.956;30.234;2023-06-14T06:42:51;101939.34;;;44.32;8.45
78855;BME280;68206;59.956;30.234;2023-06-14T06:45:20;101935.63;;;44.19;8.26
78855;BME280;68206;59.956;30.234;2023-06-14T06:47:51;101942.97;;;44.02;8.18
78855;BME280;68206;59.956;30.234;2023-06-14T06:50:19;101937.91;;;43.63;8.67
78855;BME280;68206;59.956;30.234;2023-06-14T06:52:52;101943.00;;;43.29;8.63
78855;BME280;68206;59.956;30.234;2023-06-14T06:55:21;101942.78;;;43.06;8.53
78855;BME280;68206;59.956;30.234;2023-06-14T06:57:50;101947.91;;;42.91;8.82
78855;BME280;68206;59.956;30.234;2023-06-14T07:00:19;101939.25;;;42.43;9.40
78855;BME280;68206;59.956;30.234;2023-06-14T07:02:48;101950.00;;;42.39;9.16
78855;BME280;68206;59.956;30.234;2023-06-14T07:05:16;101945.75;;;42.61;9.51
78855;BME280;68206;59.956;30.234;2023-06-14T07:07:44;101947.03;;;42.90;8.84
78855;BME280;68206;59.956;30.234;2023-06-14T07:10:14;101953.63;;;42.96;9.31
78855;BME280;68206;59.956;30.234;2023-06-14T07:12:42;101950.75;;;43.27;9.20
78855;BME280;68206;59.956;30.234;2023-06-14T07:15:10;101945.19;;;43.27;8.70
78855;BME280;68206;59.956;30.234;2023-06-14T07:17:40;101950.13;;;43.43;8.53
78855;BME280;68206;59.956;30.234;2023-06-14T07:20:09;101953.06;;;43.30;8.64
78855;BME280;68206;59.956;30.234;2023-06-14T07:22:40;101950.34;;;43.24;8.46
78855;BME280;68206;59.956;30.234;2023-06-14T07:25:10;101955.66;;;43.50;9.17
78855;BME280;68206;59.956;30.234;2023-06-14T07:27:43;101951.06;;;43.37;8.50
78855;BME280;68206;59.956;30.234;2023-06-14T07:30:12;101943.72;;;43.61;8.35
78855;BME280;68206;59.956;30.234;2023-06-14T07:32:40;101950.31;;;43.67;8.67
78855;BME280;68206;59.956;30.234;2023-06-14T07:35:09;101944.63;;;43.73;8.56
78855;BME280;68206;59.956;30.234;2023-06-14T07:37:37;101948.28;;;43.74;8.60
78855;BME280;68206;59.956;30.234;2023-06-14T07:40:08;101945.19;;;43.46;8.69
78855;BME280;68206;59.956;30.234;2023-06-14T07:42:37;101945.03;;;43.40;8.89
78855;BME280;68206;59.956;30.234;2023-06-14T07:45:07;101941.47;;;43.33;8.75
78855;BME280;68206;59.956;30.234;2023-06-14T07:47:36;101944.25;;;43.15;9.01
78855;BME280;68206;59.956;30.234;2023-06-14T07:50:05;101941.97;;;42.81;8.59
78855;BME280;68206;59.956;30.234;2023-06-14T07:52:35;101936.72;;;42.66;8.79
78855;BME280;68206;59.956;30.234;2023-06-14T07:55:04;101935.56;;;42.11;9.41
78855;BME280;68206;59.956;30.234;2023-06-14T07:57:33;101937.00;;;41.82;9.55
78855;BME280;68206;59.956;30.234;2023-06-14T08:00:02;101938.94;;;40.97;10.15
78855;BME280;68206;59.956;30.234;2023-06-14T08:02:39;101949.44;;;40.82;10.91
78855;BME280;68206;59.956;30.234;2023-06-14T08:05:09;101944.31;;;40.73;10.93
78855;BME280;68206;59.956;30.234;2023-06-14T08:07:37;101946.19;;;40.52;10.83
78855;BME280;68206;59.956;30.234;2023-06-14T08:10:06;101953.06;;;40.83;10.44
78855;BME280;68206;59.956;30.234;2023-06-14T08:12:35;101948.56;;;40.75;10.25
78855;BME280;68206;59.956;30.234;2023-06-14T08:15:03;101947.91;;;40.86;10.50
78855;BME280;68206;59.956;30.234;2023-06-14T08:17:42;101950.69;;;40.73;10.19
78855;BME280;68206;59.956;30.234;2023-06-14T08:20:13;101956.16;;;40.14;10.38
78855;BME280;68206;59.956;30.234;2023-06-14T08:22:43;101958.09;;;39.66;10.85
78855;BME280;68206;59.956;30.234;2023-06-14T08:25:13;101951.47;;;38.98;11.66
78855;BME280;68206;59.956;30.234;2023-06-14T08:27:42;101963.63;;;38.97;12.00
78855;BME280;68206;59.956;30.234;2023-06-14T08:30:12;101950.72;;;38.25;12.06
78855;BME280;68206;59.956;30.234;2023-06-14T08:32:42;101941.28;;;37.84;12.70
78855;BME280;68206;59.956;30.234;2023-06-14T08:35:10;101943.88;;;37.12;13.58
78855;BME280;68206;59.956;30.234;2023-06-14T08:37:39;101944.28;;;36.63;14.04
78855;BME280;68206;59.956;30.234;2023-06-14T08:40:18;101946.72;;;36.13;14.55
78855;BME280;68206;59.956;30.234;2023-06-14T08:42:50;101948.09;;;35.47;15.78
78855;BME280;68206;59.956;30.234;2023-06-14T08:45:19;101945.59;;;34.64;15.89
78855;BME280;68206;59.956;30.234;2023-06-14T08:47:53;101946.38;;;34.08;17.03
78855;BME280;68206;59.956;30.234;2023-06-14T08:50:26;101943.25;;;33.61;18.26
78855;BME280;68206;59.956;30.234;2023-06-14T08:53:00;101941.47;;;33.18;18.75
78855;BME280;68206;59.956;30.234;2023-06-14T08:55:32;101952.13;;;32.69;20.30
78855;BME280;68206;59.956;30.234;2023-06-14T08:58:04;101939.66;;;32.22;20.50
78855;BME280;68206;59.956;30.234;2023-06-14T09:00:33;101935.16;;;31.76;21.33
78855;BME280;68206;59.956;30.234;2023-06-14T09:03:02;101949.25;;;31.53;21.69
78855;BME280;68206;59.956;30.234;2023-06-14T09:05:32;101946.78;;;31.23;22.62
78855;BME280;68206;59.956;30.234;2023-06-14T09:08:00;101943.94;;;30.96;22.79
78855;BME280;68206;59.956;30.234;2023-06-14T09:10:32;101938.78;;;30.83;23.14
78855;BME280;68206;59.956;30.234;2023-06-14T09:13:02;101941.00;;;30.60;23.54
78855;BME280;68206;59.956;30.234;2023-06-14T09:15:31;101938.63;;;30.36;23.51
78855;BME280;68206;59.956;30.234;2023-06-14T09:18:01;101938.81;;;30.35;23.10
78855;BME280;68206;59.956;30.234;2023-06-14T09:20:32;101930.16;;;30.20;23.24
78855;BME280;68206;59.956;30.234;2023-06-14T09:23:00;101928.41;;;30.10;23.21
78855;BME280;68206;59.956;30.234;2023-06-14T09:25:29;101927.38;;;29.91;23.69
78855;BME280;68206;59.956;30.234;2023-06-14T09:28:06;101936.50;;;29.71;24.63
78855;BME280;68206;59.956;30.234;2023-06-14T09:30:36;101934.78;;;29.70;24.62
78855;BME280;68206;59.956;30.234;2023-06-14T09:33:04;101933.91;;;29.60;25.47
78855;BME280;68206;59.956;30.234;2023-06-14T09:35:34;101936.03;;;29.56;26.32
78855;BME280;68206;59.956;30.234;2023-06-14T09:38:03;101935.88;;;29.58;25.38
78855;BME280;68206;59.956;30.234;2023-06-14T09:40:34;101934.72;;;29.51;25.69
78855;BME280;68206;59.956;30.234;2023-06-14T09:43:05;101934.25;;;29.46;25.70
78855;BME280;68206;59.956;30.234;2023-06-14T09:45:35;101932.22;;;29.38;25.93
78855;BME280;68206;59.956;30.234;2023-06-14T09:48:07;101931.84;;;29.22;26.47
78855;BME280;68206;59.956;30.234;2023-06-14T09:50:39;101942.91;;;29.20;25.83
78855;BME280;68206;59.956;30.234;2023-06-14T09:53:10;101942.66;;;29.03;26.69
78855;BME280;68206;59.956;30.234;2023-06-14T09:55:41;101934.75;;;28.79;27.01
78855;BME280;68206;59.956;30.234;2023-06-14T09:58:10;101934.25;;;28.74;27.53
78855;BME280;68206;59.956;30.234;2023-06-14T10:00:39;101931.31;;;28.66;27.25
78855;BME280;68206;59.956;30.234;2023-06-14T10:03:12;101920.19;;;28.58;26.42
78855;BME280;68206;59.956;30.234;2023-06-14T10:05:45;101925.94;;;28.55;25.65
78855;BME280;68206;59.956;30.234;2023-06-14T10:08:15;101922.34;;;28.54;24.57
78855;BME280;68206;59.956;30.234;2023-06-14T10:10:44;101925.72;;;28.46;23.95
78855;BME280;68206;59.956;30.234;2023-06-14T10:13:13;101921.66;;;28.41;23.07
78855;BME280;68206;59.956;30.234;2023-06-14T10:15:57;101914.97;;;28.34;23.13
78855;BME280;68206;59.956;30.234;2023-06-14T10:18:33;101920.75;;;28.20;23.26
78855;BME280;68206;59.956;30.234;2023-06-14T10:21:11;101917.16;;;28.19;23.08
78855;BME280;68206;59.956;30.234;2023-06-14T10:23:44;101923.09;;;28.13;23.23
78855;BME280;68206;59.956;30.234;2023-06-14T10:26:18;101913.69;;;28.06;23.54
78855;BME280;68206;59.956;30.234;2023-06-14T10:28:56;101914.47;;;27.97;23.38
78855;BME280;68206;59.956;30.234;2023-06-14T10:31:41;101919.19;;;27.95;23.57
78855;BME280;68206;59.956;30.234;2023-06-14T10:34:10;101920.22;;;27.83;24.15
78855;BME280;68206;59.956;30.234;2023-06-14T10:36:42;101906.50;;;27.73;24.52
78855;BME280;68206;59.956;30.234;2023-06-14T10:39:15;101913.56;;;27.53;24.77
78855;BME280;68206;59.956;30.234;2023-06-14T10:41:51;101908.25;;;27.52;25.19
78855;BME280;68206;59.956;30.234;2023-06-14T10:44:49;101910.84;;;27.42;24.81
78855;BME280;68206;59.956;30.234;2023-06-14T10:47:23;101919.75;;;27.33;24.55
78855;BME280;68206;59.956;30.234;2023-06-14T10:49:54;101908.09;;;27.31;24.78
78855;BME280;68206;59.956;30.234;2023-06-14T10:52:26;101906.50;;;27.28;24.64
78855;BME280;68206;59.956;30.234;2023-06-14T10:55:06;101909.97;;;27.19;24.63
78855;BME280;68206;59.956;30.234;2023-06-14T10:57:36;101907.84;;;27.12;25.04
78855;BME280;68206;59.956;30.234;2023-06-14T11:00:19;101909.47;;;27.03;24.72
78855;BME280;68206;59.956;30.234;2023-06-14T11:03:30;101906.38;;;26.97;25.36
78855;BME280;68206;59.956;30.234;2023-06-14T11:06:13;101911.06;;;26.95;25.29
78855;BME280;68206;59.956;30.234;2023-06-14T11:09:20;101907.41;;;26.83;25.79
78855;BME280;68206;59.956;30.234;2023-06-14T11:11:53;101901.84;;;26.73;25.87
78855;BME280;68206;59.956;30.234;2023-06-14T11:14:24;101908.22;;;26.61;26.09
78855;BME280;68206;59.956;30.234;2023-06-14T11:16:53;101902.78;;;26.61;26.56
78855;BME280;68206;59.956;30.234;2023-06-14T11:19:21;101903.03;;;26.58;26.43
78855;BME280;68206;59.956;30.234;2023-06-14T11:21:49;101892.63;;;26.52;26.40
78855;BME280;68206;59.956;30.234;2023-06-14T11:24:19;101902.03;;;26.48;26.82
78855;BME280;68206;59.956;30.234;2023-06-14T11:26:48;101897.91;;;26.42;26.85
78855;BME280;68206;59.956;30.234;2023-06-14T11:29:16;101897.53;;;26.36;27.29
78855;BME280;68206;59.956;30.234;2023-06-14T11:31:48;101896.28;;;26.29;27.70
78855;BME280;68206;59.956;30.234;2023-06-14T11:34:17;101891.16;;;26.24;27.73
78855;BME280;68206;59.956;30.234;2023-06-14T11:36:45;101886.81;;;26.22;28.36
78855;BME280;68206;59.956;30.234;2023-06-14T11:39:14;101887.69;;;26.22;28.61
78855;BME280;68206;59.956;30.234;2023-06-14T11:41:45;101887.78;;;26.21;28.85
78855;BME280;68206;59.956;30.234;2023-06-14T11:44:14;101882.56;;;26.18;29.21
78855;BME280;68206;59.956;30.234;2023-06-14T11:46:42;101888.72;;;26.08;29.61
78855;BME280;68206;59.956;30.234;2023-06-14T11:49:10;101883.66;;;26.04;30.01
78855;BME280;68206;59.956;30.234;2023-06-14T11:51:38;101880.13;;;25.91;30.57
78855;BME280;68206;59.956;30.234;2023-06-14T11:54:07;101886.19;;;25.94;30.64
78855;BME280;68206;59.956;30.234;2023-06-14T11:56:36;101887.63;;;25.87;31.18
78855;BME280;68206;59.956;30.234;2023-06-14T11:59:06;101873.34;;;25.73;31.96
78855;BME280;68206;59.956;30.234;2023-06-14T12:01:37;101874.97;;;25.75;31.92
78855;BME280;68206;59.956;30.234;2023-06-14T12:04:07;101877.09;;;25.83;31.67
78855;BME280;68206;59.956;30.234;2023-06-14T12:06:35;101879.72;;;25.84;31.16
78855;BME280;68206;59.956;30.234;2023-06-14T12:09:07;101874.38;;;25.83;31.15
78855;BME280;68206;59.956;30.234;2023-06-14T12:11:42;101882.31;;;25.86;31.13
78855;BME280;68206;59.956;30.234;2023-06-14T12:14:11;101872.66;;;25.82;30.77
78855;BME280;68206;59.956;30.234;2023-06-14T12:16:40;101872.03;;;25.78;30.54
78855;BME280;68206;59.956;30.234;2023-06-14T12:21:39;101856.84;;;25.63;29.83
78855;BME280;68206;59.956;30.234;2023-06-14T12:24:09;101862.53;;;25.60;28.91
78855;BME280;68206;59.956;30.234;2023-06-14T12:26:41;101852.97;;;25.54;29.25
78855;BME280;68206;59.956;30.234;2023-06-14T12:29:11;101845.66;;;25.55;28.69
78855;BME280;68206;59.956;30.234;2023-06-14T12:31:40;101858.19;;;25.57;28.36
78855;BME280;68206;59.956;30.234;2023-06-14T12:34:09;101849.22;;;25.55;28.36
78855;BME280;68206;59.956;30.234;2023-06-14T12:36:38;101856.34;;;25.58;28.34
78855;BME280;68206;59.956;30.234;2023-06-14T12:39:12;101855.25;;;25.60;27.80
78855;BME280;68206;59.956;30.234;2023-06-14T12:41:40;101857.31;;;25.57;27.58
78855;BME280;68206;59.956;30.234;2023-06-14T12:44:11;101853.69;;;25.56;28.15
78855;BME280;68206;59.956;30.234;2023-06-14T12:46:40;101853.69;;;25.56;27.94
78855;BME280;68206;59.956;30.234;2023-06-14T12:49:09;101854.66;;;25.55;27.88
78855;BME280;68206;59.956;30.234;2023-06-14T12:51:37;101863.06;;;25.52;27.87
78855;BME280;68206;59.956;30.234;2023-06-14T12:54:06;101856.75;;;25.52;28.20
78855;BME280;68206;59.956;30.234;2023-06-14T12:56:34;101855.88;;;25.51;27.88
78855;BME280;68206;59.956;30.234;2023-06-14T12:59:03;101840.47;;;25.52;28.02
78855;BME280;68206;59.956;30.234;2023-06-14T13:01:38;101841.09;;;25.55;27.98